createdAt,value
2022-09-17T00:00:21.982Z,1.00
2022-09-17T00:04:35.367Z,1.20
2022-09-17T00:13:26.712Z,1.30
2022-09-17T00:17:01.756Z,1.67
2022-09-17T00:19:51.244Z,1.65
2022-09-17T00:22:26.367Z,1.65
2022-09-17T00:25:15.476Z,1.75
2022-09-17T00:28:04.731Z,1.75
2022-09-17T00:30:53.887Z,1.20
2022-09-17T00:33:44.433Z,1.73
2022-09-17T00:37:00.865Z,1.52
2022-09-17T00:39:50.040Z,1.50
2022-09-17T00:42:39.456Z,1.67
2022-09-17T00:45:32.120Z,1.67
2022-09-17T00:48:21.278Z,1.60
2022-09-17T00:51:15.301Z,2.03
2022-09-17T00:54:10.805Z,1.85
2022-09-17T00:57:00.295Z,1.98
2022-09-17T00:59:50.280Z,2.00
2022-09-17T01:02:39.753Z,2.13
2022-09-17T01:05:43.763Z,2.42
2022-09-17T01:08:45.826Z,2.15
2022-09-17T01:11:54.545Z,2.45
2022-09-17T01:15:03.223Z,2.38
2022-09-17T01:18:56.933Z,2.65
2022-09-17T01:21:58.879Z,2.83
2022-09-17T01:25:07.027Z,2.65
2022-09-17T01:28:35.992Z,2.72
2022-09-17T01:31:37.247Z,2.55
2022-09-17T01:34:35.142Z,2.40
2022-09-17T01:37:34.559Z,2.38
2022-09-17T01:40:32.382Z,2.40
2022-09-17T01:43:28.938Z,2.00
2022-09-17T01:46:26.638Z,2.33
2022-09-17T01:49:18.552Z,2.20
2022-09-17T01:52:16.089Z,2.00
2022-09-17T01:55:11.318Z,2.10
2022-09-17T01:58:12.024Z,1.92
2022-09-17T02:01:06.627Z,2.25
2022-09-17T02:04:03.458Z,2.03
2022-09-17T02:07:04.340Z,2.17
2022-09-17T02:13:24.253Z,1.95
2022-09-17T02:16:21.223Z,2.10
2022-09-17T02:19:19.101Z,2.10
2022-09-17T02:22:21.857Z,2.08
2022-09-17T02:25:21.371Z,2.58
2022-09-17T02:28:20.935Z,2.10
2022-09-17T02:31:32.382Z,2.05
2022-09-17T02:34:47.535Z,2.00
2022-09-17T02:37:38.044Z,2.13
2022-09-17T02:40:33.141Z,2.47
2022-09-17T02:43:38.010Z,2.55
2022-09-17T02:47:12.927Z,2.20
2022-09-17T02:50:44.462Z,2.67
2022-09-17T02:54:01.037Z,2.78
2022-09-17T02:57:02.736Z,2.40
2022-09-17T03:00:17.306Z,2.15
2022-09-17T03:03:49.249Z,2.15
2022-09-17T03:07:34.729Z,2.40
2022-09-17T03:16:27.874Z,3.50
2022-09-17T03:19:44.208Z,2.40
2022-09-17T03:22:53.508Z,2.33
2022-09-17T03:26:34.069Z,2.40
2022-09-17T03:29:28.309Z,2.10
2022-09-17T03:32:17.428Z,2.40
2022-09-17T03:35:07.084Z,2.08
2022-09-17T03:37:56.121Z,2.40
2022-09-17T03:40:45.361Z,2.20
2022-09-17T03:43:35.183Z,2.08
2022-09-17T03:46:26.006Z,2.20
2022-09-17T03:49:15.189Z,2.03
2022-09-17T03:52:04.568Z,2.25
2022-09-17T03:54:53.691Z,2.00
2022-09-17T03:57:45.898Z,2.20
2022-09-17T04:00:37.154Z,2.20
2022-09-17T04:03:34.343Z,1.83
2022-09-17T04:06:23.619Z,2.65
2022-09-17T04:09:12.805Z,2.00
2022-09-17T04:12:01.928Z,1.80
2022-09-17T04:14:50.980Z,1.90
2022-09-17T04:18:30.935Z,2.00
2022-09-17T04:21:20.317Z,2.40
2022-09-17T04:24:09.715Z,2.97
2022-09-17T04:26:58.798Z,1.55
2022-09-17T04:29:51.314Z,1.60
2022-09-17T04:32:40.651Z,1.80
2022-09-17T04:35:31.640Z,1.70
2022-09-17T04:38:22.176Z,1.70
2022-09-17T04:41:11.298Z,1.90
2022-09-17T04:44:00.495Z,1.92
2022-09-17T04:46:59.328Z,1.80
2022-09-17T04:49:50.164Z,2.00
2022-09-17T04:52:44.030Z,1.73
2022-09-17T04:55:33.130Z,1.73
2022-09-17T04:58:46.942Z,1.95
2022-09-17T05:01:36.204Z,1.73
2022-09-17T05:04:28.434Z,1.60
2022-09-17T05:07:17.674Z,2.13
2022-09-17T05:10:33.457Z,1.70
2022-09-17T05:13:22.646Z,2.50
2022-09-17T05:16:11.876Z,1.75
2022-09-17T05:19:00.996Z,1.75
2022-09-17T05:21:50.118Z,1.80
2022-09-17T05:24:39.724Z,1.88
2022-09-17T05:27:30.234Z,1.92
2022-09-17T05:30:19.530Z,1.58
2022-09-17T05:33:08.788Z,1.73
2022-09-17T05:36:08.151Z,1.70
2022-09-17T05:38:57.303Z,1.67
2022-09-17T05:41:46.447Z,2.38
2022-09-17T05:44:37.167Z,1.50
2022-09-17T05:47:28.140Z,1.15
2022-09-17T05:50:17.432Z,1.00
2022-09-17T05:53:09.054Z,1.27
2022-09-17T05:55:58.755Z,1.15
2022-09-17T05:58:48.539Z,1.35
2022-09-17T06:01:39.098Z,1.10
2022-09-17T06:04:31.534Z,1.65
2022-09-17T06:07:23.224Z,1.40
2022-09-17T06:10:16.327Z,1.00
2022-09-17T06:13:05.840Z,1.20
2022-09-17T06:15:55.543Z,1.48
2022-09-17T06:18:46.006Z,1.40
2022-09-17T06:21:35.185Z,1.30
2022-09-17T06:24:24.261Z,1.25
2022-09-17T06:27:13.289Z,1.20
2022-09-17T06:30:04.675Z,1.35
2022-09-17T06:32:53.770Z,1.30
2022-09-17T06:35:44.233Z,1.30
2022-09-17T06:38:35.948Z,1.50
2022-09-17T06:41:25.061Z,1.23
2022-09-17T06:44:14.170Z,1.33
2022-09-17T06:47:03.467Z,1.40
2022-09-17T06:49:52.698Z,1.30
2022-09-17T06:52:50.300Z,1.30
2022-09-17T06:55:39.408Z,1.75
2022-09-17T06:58:31.632Z,1.70
2022-09-17T07:01:20.937Z,1.57
2022-09-17T07:04:10.176Z,1.55
2022-09-17T07:06:59.241Z,1.42
2022-09-17T07:09:49.821Z,1.20
2022-09-17T07:12:46.620Z,1.30
2022-09-17T07:15:38.385Z,1.27
2022-09-17T07:18:28.632Z,1.35
2022-09-17T07:21:17.793Z,1.50
2022-09-17T07:24:07.464Z,1.40
2022-09-17T07:26:59.312Z,1.80
2022-09-17T07:29:48.401Z,1.60
2022-09-17T07:32:37.844Z,1.75
2022-09-17T07:35:26.970Z,1.60
2022-09-17T07:38:16.152Z,1.83
2022-09-17T07:41:08.802Z,1.50
2022-09-17T07:44:02.449Z,1.80
2022-09-17T07:46:51.688Z,1.70
2022-09-17T07:49:40.914Z,1.83
2022-09-17T07:52:30.057Z,1.50
2022-09-17T07:55:19.174Z,1.90
2022-09-17T07:58:08.399Z,1.80
2022-09-17T08:01:03.718Z,1.90
2022-09-17T08:03:55.430Z,2.05
2022-09-17T08:06:48.266Z,1.80
2022-09-17T08:09:37.371Z,1.90
2022-09-17T08:12:26.566Z,2.05
2022-09-17T08:15:16.038Z,1.65
2022-09-17T08:18:06.724Z,2.10
2022-09-17T08:20:59.293Z,2.00
2022-09-17T08:23:48.731Z,2.28
2022-09-17T08:26:38.389Z,1.95
2022-09-17T08:29:29.326Z,2.10
2022-09-17T08:32:21.244Z,1.80
2022-09-17T08:35:12.701Z,2.20
2022-09-17T08:38:01.837Z,2.28
2022-09-17T08:41:09.426Z,2.17
2022-09-17T08:44:17.415Z,3.00
2022-09-17T08:47:18.601Z,2.15
2022-09-17T08:50:18.085Z,2.30
2022-09-17T08:53:38.580Z,2.40
2022-09-17T08:56:28.224Z,2.22
2022-09-17T08:59:36.077Z,2.30
2022-09-17T09:02:46.942Z,2.20
2022-09-17T09:05:46.067Z,2.10
2022-09-17T09:08:42.948Z,2.58
2022-09-17T09:11:33.857Z,2.33
2022-09-17T09:14:29.015Z,2.53
2022-09-17T09:17:21.521Z,2.70
2022-09-17T09:20:18.809Z,2.28
2022-09-17T09:23:20.238Z,2.25
2022-09-17T09:26:18.725Z,2.83
2022-09-17T09:29:22.651Z,1.90
2022-09-17T09:32:30.922Z,2.60
2022-09-17T09:35:24.219Z,2.80
2022-09-17T09:38:33.976Z,2.33
2022-09-17T09:41:33.179Z,2.47
2022-09-17T09:44:26.015Z,2.58
2022-09-17T09:47:34.257Z,2.58
2022-09-17T09:51:05.586Z,2.88
2022-09-17T09:54:21.125Z,2.03
2022-09-17T09:57:16.064Z,2.70
2022-09-17T10:00:29.052Z,2.88
2022-09-17T10:03:22.650Z,2.97
2022-09-17T10:06:14.183Z,3.38
2022-09-17T10:09:17.800Z,2.97
2022-09-17T10:12:32.516Z,3.75
2022-09-17T10:15:27.927Z,4.00
2022-09-17T10:18:20.457Z,3.08
2022-09-17T10:21:22.159Z,2.90
2022-09-17T10:24:25.709Z,3.22
2022-09-17T10:27:19.077Z,3.28
2022-09-17T10:30:18.409Z,2.35
2022-09-17T10:33:25.758Z,2.45
2022-09-17T10:36:15.502Z,2.95
2022-09-17T10:39:32.517Z,2.92
2022-09-17T10:42:22.026Z,3.35
2022-09-17T10:45:26.481Z,3.00
2022-09-17T10:48:20.882Z,2.90
2022-09-17T10:51:12.334Z,2.58
2022-09-17T10:54:24.401Z,2.35
2022-09-17T10:57:28.807Z,2.17
2022-09-17T11:00:20.981Z,2.42
2022-09-17T11:04:00.504Z,2.58
2022-09-17T11:07:20.863Z,3.42
2022-09-17T11:10:23.079Z,2.22
2022-09-17T11:13:31.284Z,2.23
2022-09-17T11:16:40.969Z,2.63
2022-09-17T11:19:46.904Z,2.30
2022-09-17T11:22:56.698Z,2.30
2022-09-17T11:25:58.334Z,2.72
2022-09-17T11:29:09.151Z,2.90
2022-09-17T11:32:11.755Z,2.22
2022-09-17T11:35:08.770Z,2.28
2022-09-17T11:38:06.071Z,2.15
2022-09-17T11:41:03.586Z,2.10
2022-09-17T11:44:09.852Z,2.15
2022-09-17T11:47:08.898Z,1.83
2022-09-17T11:50:07.607Z,2.13
2022-09-17T11:53:08.040Z,2.08
2022-09-17T11:56:03.458Z,2.30
2022-09-17T11:59:03.228Z,2.00
2022-09-17T12:01:58.642Z,1.50
2022-09-17T12:04:59.867Z,1.85
2022-09-17T12:07:57.722Z,1.60
2022-09-17T12:10:54.260Z,2.35
2022-09-17T12:13:51.082Z,2.70
2022-09-17T12:16:48.436Z,3.03
2022-09-17T12:19:45.709Z,2.83
2022-09-17T12:22:41.761Z,2.20
2022-09-17T12:25:46.143Z,3.70
2022-09-17T12:28:49.963Z,3.25
2022-09-17T12:31:49.968Z,3.08
2022-09-17T12:34:54.043Z,2.05
2022-09-17T12:38:06.149Z,2.00
2022-09-17T12:41:08.158Z,2.85
2022-09-17T12:44:27.185Z,1.63
2022-09-17T12:47:53.164Z,2.00
2022-09-17T12:51:06.231Z,2.80
2022-09-17T12:57:12.492Z,2.38
2022-09-17T13:00:09.719Z,2.17
2022-09-17T13:03:12.323Z,2.13
2022-09-17T13:06:52.273Z,1.85
2022-09-17T13:10:27.785Z,2.00
2022-09-17T13:13:38.412Z,1.98
2022-09-17T13:16:38.987Z,2.00
2022-09-17T13:19:42.847Z,1.83
2022-09-17T13:22:34.754Z,3.28
2022-09-17T13:25:27.937Z,1.60
2022-09-17T13:28:17.569Z,1.10
2022-09-17T13:31:08.719Z,0.90
2022-09-17T13:33:59.903Z,1.10
2022-09-17T13:36:52.891Z,0.90
2022-09-17T13:39:47.291Z,1.20
2022-09-17T13:42:49.068Z,2.65
2022-09-17T13:46:15.565Z,3.40
2022-09-17T13:49:14.780Z,1.70
2022-09-17T13:52:11.547Z,1.90
2022-09-17T13:55:02.798Z,1.50
2022-09-17T13:57:53.455Z,1.20
2022-09-17T14:00:56.504Z,1.30
2022-09-17T14:06:54.487Z,1.27
2022-09-17T14:09:54.939Z,1.20
2022-09-17T14:13:02.041Z,1.60
2022-09-17T14:16:04.124Z,1.60
2022-09-17T14:19:02.719Z,1.80
2022-09-17T14:22:03.425Z,1.80
2022-09-17T14:24:55.737Z,1.33
2022-09-17T14:28:22.547Z,2.22
2022-09-17T14:31:20.105Z,2.17
2022-09-17T14:34:21.745Z,1.80
2022-09-17T14:37:17.266Z,2.00
2022-09-17T14:40:17.402Z,1.73
2022-09-17T14:43:06.537Z,2.00
2022-09-17T14:45:56.910Z,2.03
2022-09-17T14:48:45.987Z,2.65
2022-09-17T14:51:41.691Z,2.50
2022-09-17T14:54:35.986Z,2.25
2022-09-17T14:57:54.211Z,2.45
2022-09-17T15:00:53.863Z,2.13
2022-09-17T15:03:44.025Z,2.50
2022-09-17T15:06:33.283Z,5.45
2022-09-17T15:09:27.709Z,5.03
2022-09-17T15:12:19.957Z,6.00
2022-09-17T15:15:22.176Z,4.20
2022-09-17T15:18:15.753Z,3.13
2022-09-17T15:21:12.733Z,3.00
2022-09-17T15:24:15.138Z,2.80
2022-09-17T15:27:13.525Z,2.80
2022-09-17T15:30:07.887Z,2.22
2022-09-17T15:33:00.384Z,2.30
2022-09-17T15:36:14.289Z,1.83
2022-09-17T15:39:32.543Z,1.50
2022-09-17T15:42:26.944Z,1.45
2022-09-17T15:45:21.971Z,1.20
2022-09-17T15:48:35.463Z,1.35
2022-09-17T15:51:28.244Z,2.00
2022-09-17T15:57:26.617Z,2.10
2022-09-17T16:00:17.939Z,1.40
2022-09-17T16:04:18.441Z,1.35
2022-09-17T16:07:30.873Z,1.40
2022-09-17T16:10:20.551Z,1.13
2022-09-17T16:13:13.589Z,1.27
2022-09-17T16:16:03.515Z,1.30
2022-09-17T16:18:52.950Z,1.40
2022-09-17T16:21:45.427Z,1.52
2022-09-17T16:24:34.989Z,1.40
2022-09-17T16:27:30.592Z,1.20
2022-09-17T16:30:24.277Z,1.35
2022-09-17T16:33:15.611Z,1.75
2022-09-17T16:36:05.114Z,2.85
2022-09-17T16:38:54.351Z,3.80
2022-09-17T16:41:43.950Z,3.50
2022-09-17T16:44:34.292Z,2.20
2022-09-17T16:47:24.871Z,1.77
2022-09-17T16:50:16.797Z,1.65
2022-09-17T16:53:05.946Z,1.80
2022-09-17T16:55:55.060Z,2.00
2022-09-17T16:58:44.453Z,2.30
2022-09-17T17:01:33.516Z,3.28
2022-09-17T17:04:24.505Z,2.65
2022-09-17T17:07:13.659Z,4.32
2022-09-17T17:10:03.487Z,15.40
2022-09-17T17:12:52.612Z,12.30
2022-09-17T17:15:42.260Z,6.07
2022-09-17T17:18:31.619Z,6.72
2022-09-17T17:21:22.204Z,7.85
2022-09-17T17:24:12.442Z,5.35
2022-09-17T17:27:23.666Z,4.18
2022-09-17T17:30:17.492Z,3.60
2022-09-17T17:33:06.991Z,2.78
2022-09-17T17:35:56.352Z,3.22
2022-09-17T17:38:49.693Z,3.33
2022-09-17T17:41:38.819Z,4.00
2022-09-17T17:44:28.086Z,2.88
2022-09-17T17:47:17.216Z,11.30
2022-09-17T17:50:08.589Z,7.50
2022-09-17T17:52:58.852Z,3.92
2022-09-17T17:55:59.613Z,3.75
2022-09-17T17:58:49.016Z,4.00
2022-09-17T18:01:38.574Z,4.93
2022-09-17T18:04:27.951Z,3.53
2022-09-17T18:07:17.210Z,3.45
2022-09-17T18:10:07.651Z,2.13
2022-09-17T18:12:58.327Z,2.10
2022-09-17T18:16:14.027Z,1.70
2022-09-17T18:19:18.363Z,2.00
2022-09-17T18:22:07.601Z,2.30
2022-09-17T18:24:58.748Z,3.17
2022-09-17T18:27:47.877Z,3.38
2022-09-17T18:30:39.000Z,3.00
2022-09-17T18:33:28.624Z,2.97
2022-09-17T18:36:17.888Z,2.35
2022-09-17T18:39:57.121Z,1.67
2022-09-17T18:42:19.413Z,1.67
2022-09-17T18:45:10.210Z,3.25
2022-09-17T18:48:00.691Z,2.08
2022-09-17T18:50:58.490Z,1.55
2022-09-17T18:53:51.503Z,1.60
2022-09-17T18:56:41.978Z,1.70
2022-09-17T18:59:31.326Z,1.42
2022-09-17T19:02:20.433Z,1.77
2022-09-17T19:05:11.758Z,1.58
2022-09-17T19:08:00.914Z,2.00
2022-09-17T19:10:52.173Z,1.92
2022-09-17T19:13:43.861Z,1.63
2022-09-17T19:16:33.120Z,2.30
2022-09-17T19:19:22.304Z,1.50
2022-09-17T19:22:12.666Z,1.58
2022-09-17T19:25:01.737Z,1.60
2022-09-17T19:27:54.070Z,1.58
2022-09-17T19:30:43.175Z,1.83
2022-09-17T19:33:32.393Z,1.20
2022-09-17T19:36:22.672Z,1.17
2022-09-17T19:39:13.926Z,1.00
2022-09-17T19:42:02.998Z,1.45
2022-09-17T19:44:53.128Z,1.20
2022-09-17T19:47:42.358Z,1.42
2022-09-17T19:50:32.238Z,3.65
2022-09-17T19:53:21.568Z,1.80
2022-09-17T19:56:14.702Z,1.42
2022-09-17T20:02:08.621Z,1.30
2022-09-17T20:04:57.676Z,1.60
2022-09-17T20:07:47.948Z,1.40
2022-09-17T20:10:38.411Z,1.20
2022-09-17T20:13:28.934Z,1.13
2022-09-17T20:16:21.648Z,1.33
2022-09-17T20:19:17.156Z,1.10
2022-09-17T20:22:31.992Z,1.00
2022-09-17T20:25:21.856Z,1.10
2022-09-17T20:28:11.281Z,1.35
2022-09-17T20:31:08.469Z,1.20
2022-09-17T20:34:00.797Z,1.00
2022-09-17T20:36:55.174Z,1.00
2022-09-17T20:39:55.805Z,1.05
2022-09-17T20:42:44.958Z,1.00
2022-09-17T20:45:34.222Z,1.10
2022-09-17T20:48:24.655Z,1.00
2022-09-17T21:02:53.895Z,0.98
2022-09-17T21:05:44.461Z,1.13
2022-09-17T21:08:51.337Z,1.02
2022-09-17T21:12:12.158Z,1.00
2022-09-17T21:18:09.760Z,1.35
2022-09-17T21:21:03.176Z,1.77
2022-09-17T21:24:02.344Z,1.52
2022-09-17T21:26:55.262Z,1.55
2022-09-17T21:29:44.451Z,1.50
2022-09-17T21:32:33.916Z,1.38
2022-09-17T21:35:25.414Z,1.20
2022-09-17T21:38:15.981Z,1.30
2022-09-17T21:41:09.024Z,1.63
2022-09-17T21:43:58.239Z,1.30
2022-09-17T21:46:59.354Z,1.00
2022-09-17T21:49:48.547Z,1.20
2022-09-17T21:52:37.606Z,1.30
2022-09-17T21:55:28.099Z,1.00
2022-09-17T21:58:32.588Z,0.98
2022-09-17T22:01:25.099Z,0.90
2022-09-17T22:04:17.302Z,1.10
2022-09-17T22:07:06.479Z,0.97
2022-09-17T22:09:55.568Z,1.40
2022-09-17T22:12:45.991Z,1.33
2022-09-17T22:15:35.426Z,1.00
2022-09-17T22:18:25.202Z,1.05
2022-09-17T22:21:31.430Z,1.30
2022-09-17T22:24:36.265Z,1.38
2022-09-17T22:27:26.523Z,1.20
2022-09-17T22:30:19.435Z,1.08
2022-09-17T22:33:08.647Z,1.23
2022-09-17T22:36:04.627Z,1.27
2022-09-17T22:38:56.129Z,1.30
2022-09-17T22:41:45.759Z,1.20
2022-09-17T22:44:35.057Z,1.10
2022-09-17T22:47:25.950Z,1.00
2022-09-17T22:50:15.189Z,1.45
2022-09-17T22:53:04.338Z,1.17
2022-09-17T22:55:58.098Z,1.10
2022-09-17T22:58:48.143Z,1.42
2022-09-17T23:01:40.787Z,1.00
2022-09-17T23:04:31.366Z,1.17
2022-09-17T23:07:20.468Z,1.38
2022-09-17T23:10:09.942Z,1.20
2022-09-17T23:12:59.010Z,1.10
2022-09-17T23:15:48.340Z,1.30
2022-09-17T23:18:39.137Z,1.35
2022-09-17T23:21:29.623Z,0.90
2022-09-17T23:24:22.106Z,1.15
2022-09-17T23:27:11.180Z,1.60
2022-09-17T23:30:00.232Z,1.92
2022-09-17T23:32:54.978Z,1.40
2022-09-17T23:35:44.083Z,1.42
2022-09-17T23:38:35.778Z,1.30
2022-09-17T23:41:27.400Z,1.30
2022-09-17T23:47:22.803Z,1.10
2022-09-17T23:50:11.947Z,1.40
2022-09-17T23:53:00.974Z,1.23
2022-09-17T23:55:52.383Z,1.25
2022-09-17T23:58:42.120Z,1.38
